Time;durP1;ratioP1;P1;durP2;ratioP2;P2;SDS_P1;SDS_P2;PMS_P1;PMS_P2;Temp;Humidity;BMP_temperature;BMP_pressure;BME280_temperature;BME280_humidity;BME280_pressure;Samples;Min_cycle;Max_cycle;Signal;HPM_P1;HPM_P2
2023/07/10 05:21:57;;;;;;;;;4.00;4.00;;;;;20.18;63.58;101951.66;5555540;23;47001;-70
2023/07/10 05:24:23;;;;;;;;;4.33;4.33;;;;;20.01;63.12;101919.38;4948674;28;45498;-73
2023/07/10 05:26:48;;;;;;;;;4.00;3.67;;;;;20.10;63.87;101932.81;4946769;28;57766;-73
2023/07/10 05:29:13;;;;;;;;;7.00;5.00;;;;;20.21;63.94;101948.97;4943252;28;45449;-72
2023/07/10 05:31:39;;;;;;;;;5.33;4.33;;;;;20.14;63.75;101925.69;4950307;28;45448;-70
2023/07/10 05:34:04;;;;;;;;;4.33;4.33;;;;;20.27;62.94;101946.28;4943928;28;49210;-71
2023/07/10 05:36:29;;;;;;;;;6.00;5.00;;;;;20.21;62.66;101934.66;4933593;28;45494;-71
2023/07/10 05:38:55;;;;;;;;;5.00;3.33;;;;;20.27;62.47;101940.91;4945207;28;45397;-71
2023/07/10 05:41:21;;;;;;;;;6.33;5.33;;;;;20.16;62.58;101915.84;4933698;28;51864;-71
2023/07/10 05:43:47;;;;;;;;;5.00;5.00;;;;;20.27;62.05;101943.59;4948977;28;46564;-72
2023/07/10 05:46:13;;;;;;;;;7.00;5.67;;;;;20.25;62.10;101933.75;4949294;28;45325;-71
2023/07/10 05:48:38;;;;;;;;;7.00;5.67;;;;;20.29;62.12;101936.47;4930762;28;45372;-73
2023/07/10 05:51:04;;;;;;;;;6.00;5.00;;;;;20.33;62.38;101937.34;4934925;28;46750;-71
2023/07/10 05:53:33;;;;;;;;;5.00;5.00;;;;;20.19;61.89;101913.16;4950591;28;45333;-72
2023/07/10 05:56:00;;;;;;;;;6.00;5.00;;;;;20.39;61.33;101947.22;4936475;28;45493;-72
2023/07/10 05:58:28;;;;;;;;;8.33;4.67;;;;;20.40;61.84;101944.53;4935053;28;45240;-71
2023/07/10 06:00:57;;;;;;;;;3.33;3.00;;;;;20.43;61.27;101941.84;4927872;28;45899;-72
2023/07/10 06:03:23;;;;;;;;;5.00;4.67;;;;;20.42;61.28;101936.50;4952180;28;45517;-71
2023/07/10 06:06:01;;;;;;;;;5.00;4.00;;;;;20.29;61.69;101914.09;4946496;28;45452;-71
2023/07/10 06:08:28;;;;;;;;;4.33;4.33;;;;;20.40;61.20;101933.81;4947427;28;45508;-71
2023/07/10 06:10:54;;;;;;;;;4.67;4.67;;;;;20.55;61.21;101951.75;4948938;28;45236;-71
2023/07/10 06:13:20;;;;;;;;;7.33;4.33;;;;;20.55;61.50;101938.31;4952851;28;46470;-71
2023/07/10 06:15:48;;;;;;;;;4.00;3.67;;;;;20.54;61.31;101920.44;4951490;28;45367;-72
2023/07/10 06:18:14;;;;;;;;;5.67;5.67;;;;;20.68;61.63;101937.44;4954864;28;45269;-72
2023/07/10 06:20:40;;;;;;;;;5.00;4.00;;;;;20.75;61.29;101935.66;4931049;28;45427;-71
2023/07/10 06:23:05;;;;;;;;;5.33;4.67;;;;;20.84;60.64;101943.75;4943857;28;46434;-70
2023/07/10 06:25:31;;;;;;;;;4.67;4.67;;;;;20.86;61.21;101928.47;4959858;28;45233;-70
2023/07/10 06:27:56;;;;;;;;;5.67;4.67;;;;;20.98;60.67;101939.25;4959779;28;45341;-70
2023/07/10 06:30:22;;;;;;;;;5.67;2.67;;;;;20.94;60.08;101913.25;4960017;28;45303;-71
2023/07/10 06:32:47;;;;;;;;;4.00;4.00;;;;;21.13;60.08;101921.31;4961084;28;45468;-72
2023/07/10 06:35:13;;;;;;;;;5.00;4.00;;;;;21.30;59.61;101930.25;4944681;28;45240;-71
2023/07/10 06:37:42;;;;;;;;;4.00;4.00;;;;;21.56;59.35;101934.69;4960081;28;45240;-71
2023/07/10 06:40:13;;;;;;;;;6.33;5.00;;;;;21.73;58.17;101935.53;4945493;28;45459;-72
2023/07/10 06:42:40;;;;;;;;;4.67;3.00;;;;;21.94;58.02;101930.97;4956853;28;45658;-72
2023/07/10 06:45:07;;;;;;;;;5.67;4.00;;;;;22.13;57.73;101925.50;4949038;28;45295;-72
2023/07/10 06:47:39;;;;;;;;;6.67;4.00;;;;;22.45;56.72;101937.00;4956024;28;45298;-72
2023/07/10 06:50:06;;;;;;;;;2.33;2.33;;;;;22.53;56.11;101906.41;4940979;28;46634;-71
2023/07/10 06:52:32;;;;;;;;;5.00;3.00;;;;;22.76;55.94;101894.53;4953224;28;47214;-73
2023/07/10 06:54:57;;;;;;;;;7.00;4.00;;;;;23.20;54.88;101925.63;4947834;28;45370;-71
2023/07/10 06:57:23;;;;;;;;;3.00;3.00;;;;;23.35;54.63;101916.47;4958350;28;49461;-73
2023/07/10 06:59:48;;;;;;;;;7.00;4.67;;;;;23.49;54.02;101903.72;4938948;28;45906;-71
2023/07/10 07:02:13;;;;;;;;;4.00;4.00;;;;;23.72;53.09;101898.06;4953500;28;45388;-71
2023/07/10 07:04:40;;;;;;;;;7.00;3.00;;;;;24.03;53.52;101908.44;4939769;28;45368;-72
2023/07/10 07:07:06;;;;;;;;;5.50;4.00;;;;;24.37;52.45;101925.09;4954056;28;45378;-72
2023/07/10 07:09:31;;;;;;;;;4.00;4.00;;;;;24.48;52.96;101911.47;4944172;28;45911;-72
2023/07/10 07:11:58;;;;;;;;;3.75;3.00;;;;;24.69;52.08;101907.50;4955218;28;46608;-72
2023/07/10 07:14:24;;;;;;;;;3.50;3.50;;;;;24.78;50.13;101891.09;4944006;28;45355;-70
2023/07/10 07:16:49;;;;;;;;;3.25;3.00;;;;;24.97;52.01;101887.16;4953952;28;45909;-70
2023/07/10 07:19:15;;;;;;;;;2.50;2.50;;;;;25.31;49.92;101913.63;4956642;28;45365;-70
2023/07/10 07:21:40;;;;;;;;;4.75;4.75;;;;;25.47;49.18;101899.81;4951747;28;46535;-70
2023/07/10 07:24:05;;;;;;;;;3.75;3.75;;;;;25.73;48.74;101916.38;4942529;28;48552;-70
2023/07/10 07:26:31;;;;;;;;;3.00;2.50;;;;;25.96;48.52;101915.91;4957254;28;45413;-70
2023/07/10 07:28:56;;;;;;;;;4.00;3.50;;;;;26.09;47.54;101893.06;4938957;28;45365;-71
2023/07/10 07:31:21;;;;;;;;;4.50;3.50;;;;;26.27;48.28;101882.69;4956699;28;45503;-70
2023/07/10 07:33:48;;;;;;;;;12.25;5.00;;;;;26.60;48.04;101910.84;4955119;28;45471;-70
2023/07/10 07:36:14;;;;;;;;;3.25;2.75;;;;;26.86;48.22;101912.00;4950327;28;45365;-69
2023/07/10 07:38:39;;;;;;;;;4.00;4.00;;;;;26.91;45.97;101882.94;4954070;28;45424;-71
2023/07/10 07:41:06;;;;;;;;;3.25;3.25;;;;;27.22;44.80;101910.19;4948991;28;45317;-69
2023/07/10 07:43:32;;;;;;;;;5.20;3.40;;;;;27.43;46.93;101911.41;4948839;28;45762;-70
2023/07/10 07:45:57;;;;;;;;;3.25;3.25;;;;;27.48;44.39;101882.31;4955009;28;45468;-70
2023/07/10 07:48:24;;;;;;;;;2.50;2.50;;;;;27.79;43.85;101892.28;4958200;28;45483;-70
2023/07/10 07:50:58;;;;;;;;;2.25;2.25;;;;;27.87;43.86;101906.56;4957328;28;45484;-70
2023/07/10 07:53:23;;;;;;;;;4.20;2.40;;;;;27.74;44.11;101848.03;4957123;28;45458;-70
2023/07/10 07:55:48;;;;;;;;;3.25;1.25;;;;;28.03;43.17;101848.03;4946219;28;45364;-70
2023/07/10 07:58:14;;;;;;;;;3.25;2.50;;;;;28.46;43.66;101887.47;4939756;28;45924;-70
2023/07/10 08:00:39;;;;;;;;;3.50;2.00;;;;;28.52;42.06;101865.50;4956750;28;48698;-70
2023/07/10 08:03:04;;;;;;;;;3.50;2.25;;;;;28.84;42.07;101885.28;4939544;28;46531;-70
2023/07/10 08:05:30;;;;;;;;;3.50;2.75;;;;;28.95;41.55;101879.47;4961031;28;45392;-70
2023/07/10 08:07:55;;;;;;;;;4.25;3.00;;;;;29.13;40.64;101867.06;4940810;28;46883;-70
2023/07/10 08:10:20;;;;;;;;;5.25;4.00;;;;;29.11;41.57;101833.56;4943100;28;46931;-72
2023/07/10 08:12:46;;;;;;;;;3.00;3.00;;;;;29.53;41.51;101871.91;4931762;28;45384;-73
2023/07/10 08:15:11;;;;;;;;;4.25;4.00;;;;;29.71;40.27;101861.28;4960774;28;45406;-73
2023/07/10 08:17:36;;;;;;;;;4.00;4.00;;;;;29.96;37.89;101875.72;4955601;28;45463;-75
2023/07/10 08:20:02;;;;;;;;;4.00;1.25;;;;;30.22;38.86;101885.66;4942168;28;47199;-73
2023/07/10 08:22:27;;;;;;;;;2.25;1.75;;;;;30.37;38.41;101883.22;4958723;28;46616;-73
2023/07/10 08:24:52;;;;;;;;;1.25;0.25;;;;;30.36;39.20;101854.16;4953072;28;45454;-73
2023/07/10 08:27:17;;;;;;;;;3.25;2.25;;;;;30.67;36.38;101884.69;4949619;28;50692;-73
2023/07/10 08:29:43;;;;;;;;;2.25;0.25;;;;;30.59;36.09;101845.91;4938910;28;54289;-73
2023/07/10 08:32:08;;;;;;;;;2.00;1.25;;;;;30.92;39.41;101875.44;4958722;28;45443;-72
2023/07/10 08:34:34;;;;;;;;;0.50;0.50;;;;;31.06;35.31;101878.47;4955650;28;45420;-73
2023/07/10 08:36:59;;;;;;;;;2.00;2.00;;;;;31.16;38.66;101873.47;4957336;28;46471;-73
2023/07/10 08:39:24;;;;;;;;;3.75;2.25;;;;;31.25;36.21;101878.50;4953039;28;46167;-73
2023/07/10 08:41:54;;;;;;;;;3.75;0.75;;;;;31.48;33.04;101890.25;4934241;28;45442;-73
2023/07/10 08:44:27;;;;;;;;;2.00;2.00;;;;;31.53;34.42;101861.75;4959772;28;45385;-73
2023/07/10 08:46:52;;;;;;;;;1.20;1.20;;;;;31.64;35.85;101858.53;4956178;28;45244;-74
2023/07/10 08:49:40;;;;;;;;;0.00;0.00;;;;;31.94;36.36;101885.41;4935207;28;46260;-75
2023/07/10 08:52:10;;;;;;;;;2.00;2.00;;;;;31.94;34.15;101875.34;4955020;28;45401;-74
2023/07/10 08:54:36;;;;;;;;;1.20;1.20;;;;;31.98;33.26;101857.81;4934813;28;45171;-73
2023/07/10 08:57:16;;;;;;;;;2.25;1.00;;;;;32.23;33.74;101878.50;4952121;28;45216;-73
2023/07/10 09:00:06;;;;;;;;;0.60;0.00;;;;;32.32;35.79;101880.78;4928919;28;47222;-72
2023/07/10 09:02:42;;;;;;;;;1.20;1.20;;;;;32.38;35.34;101861.34;4949431;28;45390;-73
2023/07/10 09:05:14;;;;;;;;;1.80;1.80;;;;;32.45;34.20;101838.16;4924596;28;45371;-73
2023/07/10 09:07:43;;;;;;;;;0.60;0.60;;;;;32.79;33.43;101866.56;4936611;28;45550;-72
2023/07/10 09:10:34;;;;;;;;;1.80;0.80;;;;;32.92;33.48;101870.44;4940691;28;45290;-72
2023/07/10 09:13:02;;;;;;;;;2.00;1.00;;;;;33.01;34.18;101862.72;4925229;28;45391;-74
2023/07/10 09:15:44;;;;;;;;;1.80;0.00;;;;;33.14;32.26;101864.72;4953504;28;45356;-72
2023/07/10 09:18:25;;;;;;;;;1.60;1.60;;;;;33.28;33.86;101866.72;4956514;28;45735;-73
2023/07/10 09:20:56;;;;;;;;;1.00;0.00;;;;;33.36;33.17;101866.31;4947550;28;46410;-73
2023/07/10 09:23:29;;;;;;;;;1.00;1.00;;;;;33.45;32.11;101867.66;4957847;28;45646;-73
2023/07/10 09:26:08;;;;;;;;;0.00;0.00;;;;;33.49;32.69;101850.06;4952213;28;45454;-74
2023/07/10 09:28:34;;;;;;;;;1.40;1.40;;;;;33.69;29.40;101869.06;4953324;28;45674;-73
2023/07/10 09:31:08;;;;;;;;;1.00;1.00;;;;;33.76;31.55;101877.84;4933782;28;46857;-73
2023/07/10 09:33:52;;;;;;;;;1.20;0.20;;;;;33.75;28.86;101867.81;4953207;28;45430;-73
2023/07/10 09:36:20;;;;;;;;;1.60;1.00;;;;;33.80;30.45;101858.38;4955813;28;45349;-72
2023/07/10 09:38:48;;;;;;;;;0.00;0.00;;;;;33.98;28.17;101869.28;4957461;28;45503;-73
2023/07/10 09:41:20;;;;;;;;;1.20;0.20;;;;;33.99;31.53;101860.06;4933728;28;47197;-73
2023/07/10 09:43:57;;;;;;;;;0.20;0.20;;;;;34.19;29.21;101859.81;4946646;28;45727;-72
2023/07/10 09:46:36;;;;;;;;;1.60;0.20;;;;;34.26;30.76;101849.38;4947574;28;45695;-72
2023/07/10 09:49:10;;;;;;;;;1.20;0.00;;;;;34.46;29.98;101853.69;4944954;28;45357;-73
2023/07/10 09:51:36;;;;;;;;;0.80;0.00;;;;;34.46;27.66;101857.31;4951043;28;46093;-73
2023/07/10 09:54:06;;;;;;;;;0.00;0.00;;;;;34.59;29.31;101856.59;4953338;28;45321;-73
2023/07/10 09:56:38;;;;;;;;;0.80;0.80;;;;;34.58;29.64;101842.00;4951834;28;45354;-73
2023/07/10 09:59:23;;;;;;;;;0.00;0.00;;;;;34.74;28.43;101853.81;4952282;28;46140;-73
2023/07/10 10:01:50;;;;;;;;;0.40;0.40;;;;;34.80;26.12;101849.81;4951211;28;45497;-73
2023/07/10 10:04:24;;;;;;;;;4.80;4.80;;;;;34.85;27.24;101850.44;4944185;28;45439;-73
2023/07/10 10:07:05;;;;;;;;;1.40;1.20;;;;;35.04;26.94;101854.75;4952334;28;45299;-73
2023/07/10 10:09:31;;;;;;;;;0.80;0.80;;;;;35.22;28.25;101858.28;4960453;28;45508;-73
2023/07/10 10:12:26;;;;;;;;;1.80;0.80;;;;;35.25;29.13;101845.22;4935801;28;47993;-74
2023/07/10 10:14:58;;;;;;;;;1.60;0.40;;;;;35.27;27.20;101851.50;4935600;28;45332;-72
2023/07/10 10:17:25;;;;;;;;;0.00;0.00;;;;;35.29;26.49;101838.56;4956931;28;45306;-73
2023/07/10 10:20:01;;;;;;;;;4.00;2.20;;;;;35.43;27.11;101867.91;4953206;28;45472;-72
2023/07/10 10:22:32;;;;;;;;;2.80;0.80;;;;;35.51;27.01;101848.16;4958135;28;45512;-72
2023/07/10 10:24:57;;;;;;;;;1.00;0.00;;;;;35.60;27.06;101855.88;4953554;28;45409;-73
2023/07/10 10:27:49;;;;;;;;;3.00;0.00;;;;;35.57;26.77;101856.97;4939311;28;45291;-71
2023/07/10 10:30:30;;;;;;;;;0.20;0.20;;;;;35.48;26.13;101859.38;4925078;28;45440;-72
2023/07/10 10:33:27;;;;;;;;;0.00;0.00;;;;;35.35;26.24;101823.53;4955788;28;45540;-72
2023/07/10 10:36:12;;;;;;;;;2.20;1.20;;;;;35.66;27.14;101849.09;4928636;28;45629;-72
2023/07/10 10:38:48;;;;;;;;;0.00;0.00;;;;;35.73;26.22;101837.56;4949788;28;45239;-71
2023/07/10 10:41:14;;;;;;;;;0.80;0.80;;;;;35.74;26.79;101852.19;4948840;28;45290;-72
2023/07/10 10:44:05;;;;;;;;;1.75;0.00;;;;;35.67;26.86;101839.84;4941724;28;46790;-71
2023/07/10 10:46:49;;;;;;;;;0.00;0.00;;;;;35.75;25.29;101842.97;4943384;28;45404;-71
2023/07/10 10:49:57;;;;;;;;;0.60;0.00;;;;;35.69;26.64;101832.38;4953634;28;45469;-72
2023/07/10 10:52:41;;;;;;;;;0.00;0.00;;;;;35.82;25.99;101841.56;4941441;28;46237;-71
2023/07/10 10:55:20;;;;;;;;;2.60;0.80;;;;;35.81;25.43;101848.97;4934634;28;47259;-71
2023/07/10 10:58:12;;;;;;;;;0.80;0.00;;;;;35.90;25.30;101849.34;4940674;28;45398;-73
2023/07/10 11:00:40;;;;;;;;;1.00;1.00;;;;;35.88;24.06;101841.19;4949331;28;45347;-73
2023/07/10 11:03:11;;;;;;;;;0.20;0.20;;;;;35.89;26.08;101842.06;4954089;28;45462;-72
2023/07/10 11:05:41;;;;;;;;;0.20;0.20;;;;;35.83;24.75;101844.25;4948926;28;45494;-72
2023/07/10 11:08:18;;;;;;;;;2.80;0.60;;;;;35.86;24.27;101840.41;4960391;28;45445;-72
2023/07/10 11:10:45;;;;;;;;;0.00;0.00;;;;;35.96;23.81;101832.41;4953264;28;45351;-72
2023/07/10 11:13:28;;;;;;;;;1.20;0.20;;;;;36.04;25.40;101836.41;4956001;28;45232;-71
2023/07/10 11:15:55;;;;;;;;;1.00;0.20;;;;;35.91;23.95;101790.53;4951241;28;45572;-72
2023/07/10 11:18:22;;;;;;;;;0.00;0.00;;;;;35.90;24.26;101797.94;4948299;28;45255;-73
2023/07/10 11:20:48;;;;;;;;;0.60;0.60;;;;;35.97;25.27;101821.31;4952660;28;45338;-72
2023/07/10 11:23:43;;;;;;;;;2.20;1.00;;;;;35.99;25.38;101816.59;4955270;28;45454;-73
2023/07/10 11:26:14;;;;;;;;;0.00;0.00;;;;;35.93;24.56;101814.22;4945025;28;45504;-72
2023/07/10 11:28:54;;;;;;;;;0.40;0.00;;;;;35.95;24.70;101812.28;4950811;28;45405;-73
2023/07/10 11:31:23;;;;;;;;;0.20;0.00;;;;;36.13;23.38;101809.28;4946217;28;45284;-72
2023/07/10 11:33:51;;;;;;;;;2.00;2.00;;;;;36.06;22.95;101775.81;4957420;28;45572;-72
2023/07/10 11:36:38;;;;;;;;;0.00;0.00;;;;;36.06;23.71;101800.56;4956844;28;45428;-74
2023/07/10 11:39:07;;;;;;;;;0.00;0.00;;;;;36.04;23.69;101791.50;4952410;28;45637;-74
2023/07/10 11:41:36;;;;;;;;;0.40;0.00;;;;;36.06;24.73;101793.19;4951555;28;45370;-74
2023/07/10 11:44:19;;;;;;;;;0.00;0.00;;;;;36.01;24.40;101791.72;4952637;28;45501;-74
2023/07/10 11:46:56;;;;;;;;;0.00;0.00;;;;;35.74;22.72;101787.09;4951421;28;45431;-73
2023/07/10 11:49:24;;;;;;;;;0.00;0.00;;;;;35.60;23.46;101776.13;4951003;28;45359;-73
2023/07/10 11:52:07;;;;;;;;;1.80;1.40;;;;;35.71;23.25;101778.13;4955587;28;45505;-73
2023/07/10 11:54:33;;;;;;;;;0.00;0.00;;;;;35.83;24.25;101777.31;4942997;28;47495;-72
2023/07/10 11:57:12;;;;;;;;;1.50;0.00;;;;;35.88;24.26;101777.91;4959191;28;45295;-73
2023/07/10 11:59:50;;;;;;;;;0.00;0.00;;;;;35.92;24.07;101781.31;4958201;28;45394;-73
2023/07/10 12:02:26;;;;;;;;;1.80;1.80;;;;;35.88;23.56;101791.66;4936968;28;45512;-73
2023/07/10 12:04:52;;;;;;;;;0.00;0.00;;;;;35.83;24.37;101786.47;4958089;28;45571;-72
2023/07/10 12:07:18;;;;;;;;;0.00;0.00;;;;;35.77;23.32;101786.00;4942504;28;46643;-72
2023/07/10 12:09:49;;;;;;;;;0.20;0.20;;;;;35.67;23.00;101752.69;4956103;28;45494;-72
2023/07/10 12:12:14;;;;;;;;;0.00;0.00;;;;;35.85;24.16;101768.00;4957610;28;45695;-72
2023/07/10 12:14:40;;;;;;;;;2.25;0.00;;;;;35.73;22.45;101743.16;4954513;28;52950;-71
2023/07/10 12:17:13;;;;;;;;;0.00;0.00;;;;;36.02;23.54;101774.19;4936231;28;45423;-73
2023/07/10 12:19:39;;;;;;;;;1.20;1.00;;;;;35.98;22.24;101753.38;4955610;28;45505;-72
2023/07/10 12:22:17;;;;;;;;;0.00;0.00;;;;;36.10;23.51;101777.34;4939023;28;45406;-73
2023/07/10 12:24:59;;;;;;;;;1.00;0.00;;;;;36.15;23.21;101768.78;4956853;28;45609;-72
2023/07/10 12:27:31;;;;;;;;;0.00;0.00;;;;;36.29;23.38;101763.22;4956700;28;46440;-72
2023/07/10 12:29:56;;;;;;;;;3.40;1.20;;;;;36.42;23.74;101757.75;4953682;28;45383;-72
2023/07/10 12:32:24;;;;;;;;;1.75;1.00;;;;;36.39;22.54;101767.09;4937427;28;45365;-73
2023/07/10 12:34:49;;;;;;;;;0.60;0.60;;;;;36.25;23.01;101750.66;4947784;28;45570;-73
2023/07/10 12:37:17;;;;;;;;;0.00;0.00;;;;;36.19;22.55;101751.09;4948256;28;46225;-73
2023/07/10 12:39:48;;;;;;;;;0.00;0.00;;;;;36.26;22.40;101757.91;4943770;28;45410;-72
2023/07/10 12:42:22;;;;;;;;;1.00;0.20;;;;;36.33;22.94;101755.59;4938414;28;45362;-72
2023/07/10 12:44:48;;;;;;;;;1.00;0.20;;;;;36.36;22.00;101750.78;4949646;28;46492;-72
2023/07/10 12:47:14;;;;;;;;;0.00;0.00;;;;;36.40;23.14;101760.59;4956578;28;45504;-72
2023/07/10 12:49:49;;;;;;;;;0.80;0.80;;;;;36.18;22.94;101760.31;4950347;28;45475;-72
2023/07/10 12:52:14;;;;;;;;;0.00;0.00;;;;;36.01;22.46;101726.53;4949698;28;45450;-72
2023/07/10 12:54:42;;;;;;;;;1.00;0.00;;;;;36.04;22.46;101733.69;4947273;28;45651;-72
2023/07/10 12:57:20;;;;;;;;;0.80;0.80;;;;;36.07;22.80;101736.28;4949016;28;45364;-71
2023/07/10 12:59:54;;;;;;;;;0.60;0.60;;;;;35.98;21.11;101736.88;4947672;28;45353;-72
2023/07/10 13:02:28;;;;;;;;;0.20;0.20;;;;;36.20;22.41;101750.09;4935028;28;45407;-71
2023/07/10 13:04:58;;;;;;;;;0.60;0.60;;;;;36.13;22.02;101741.38;4944289;28;45576;-72
2023/07/10 13:07:44;;;;;;;;;0.20;0.00;;;;;36.17;22.81;101745.66;4951759;28;45365;-72
2023/07/10 13:10:23;;;;;;;;;0.20;0.20;;;;;36.23;22.32;101747.13;4932730;28;45365;-73
2023/07/10 13:12:51;;;;;;;;;0.00;0.00;;;;;36.24;21.27;101732.34;4952880;28;45433;-72
2023/07/10 13:15:18;;;;;;;;;0.00;0.00;;;;;36.21;21.60;101716.03;4948080;28;45486;-72
2023/07/10 13:17:47;;;;;;;;;0.00;0.00;;;;;36.37;22.42;101735.16;4934076;28;48361;-72
2023/07/10 13:20:19;;;;;;;;;1.40;0.80;;;;;36.41;21.67;101717.41;4933907;28;45274;-73
2023/07/10 13:22:45;;;;;;;;;1.60;1.60;;;;;36.43;21.49;101709.91;4952556;28;45314;-72
2023/07/10 13:25:10;;;;;;;;;0.25;0.00;;;;;36.43;21.74;101719.06;4946200;28;50018;-71
2023/07/10 13:27:35;;;;;;;;;0.00;0.00;;;;;36.31;21.27;101697.91;4953715;28;45419;-73
2023/07/10 13:30:01;;;;;;;;;0.00;0.00;;;;;36.36;21.47;101694.84;4934356;28;45236;-72
2023/07/10 13:32:26;;;;;;;;;0.00;0.00;;;;;36.47;21.39;101715.13;4948173;28;45384;-72
2023/07/10 13:34:53;;;;;;;;;0.25;0.25;;;;;36.57;21.30;101714.50;4943744;28;49842;-72
2023/07/10 13:37:21;;;;;;;;;0.20;0.20;;;;;36.66;21.61;101705.56;4948025;28;45405;-72
2023/07/10 13:39:48;;;;;;;;;1.60;0.00;;;;;36.79;22.29;101700.94;4936241;28;45365;-72
2023/07/10 13:42:14;;;;;;;;;0.40;0.20;;;;;36.83;20.90;101702.50;4953970;28;45632;-72
2023/07/10 13:44:42;;;;;;;;;0.00;0.00;;;;;36.96;22.46;101702.47;4934263;28;45440;-73
2023/07/10 13:47:18;;;;;;;;;1.00;0.00;;;;;36.91;21.76;101701.91;4950644;28;47335;-72
2023/07/10 13:49:44;;;;;;;;;5.80;5.20;;;;;36.80;21.42;101679.75;4949891;28;45366;-73
2023/07/10 13:52:22;;;;;;;;;4.00;0.40;;;;;36.90;21.60;101700.16;4944852;28;45331;-72
2023/07/10 13:54:49;;;;;;;;;0.20;0.20;;;;;36.90;20.76;101691.91;4956059;28;45427;-71
2023/07/10 13:57:19;;;;;;;;;0.00;0.00;;;;;36.87;21.24;101681.97;4951272;28;46651;-71
2023/07/10 13:59:45;;;;;;;;;0.00;0.00;;;;;36.92;21.22;101690.78;4924868;28;45718;-72
2023/07/10 14:02:35;;;;;;;;;1.25;0.00;;;;;36.90;21.31;101694.66;4951764;28;45338;-71
2023/07/10 14:05:03;;;;;;;;;7.60;6.00;;;;;36.93;21.18;101689.78;4949226;28;45319;-71
2023/07/10 14:07:30;;;;;;;;;2.00;2.00;;;;;37.02;20.99;101682.75;4932656;28;46222;-72
2023/07/10 14:09:58;;;;;;;;;6.40;5.40;;;;;37.15;20.92;101682.75;4933223;28;45284;-72
2023/07/10 14:12:26;;;;;;;;;1.00;0.00;;;;;37.28;19.99;101677.16;4952450;28;45563;-71
2023/07/10 14:14:52;;;;;;;;;0.00;0.00;;;;;37.37;20.50;101676.50;4950644;28;45506;-72
2023/07/10 14:17:22;;;;;;;;;0.00;0.00;;;;;37.24;20.62;101661.88;4952278;28;52170;-71
2023/07/10 14:19:49;;;;;;;;;1.00;0.00;;;;;37.27;20.04;101653.34;4944231;28;45334;-72
2023/07/10 14:22:15;;;;;;;;;0.00;0.00;;;;;37.40;20.93;101665.25;4934044;28;45249;-72
2023/07/10 14:24:40;;;;;;;;;1.00;0.00;;;;;37.31;20.61;101657.66;4954920;28;45360;-72
2023/07/10 14:27:16;;;;;;;;;0.00;0.00;;;;;37.22;19.24;101670.25;4957031;28;45887;-72
2023/07/10 14:29:42;;;;;;;;;0.40;0.40;;;;;37.13;19.08;101647.00;4958319;28;45464;-72
2023/07/10 14:32:18;;;;;;;;;0.00;0.00;;;;;37.28;20.03;101653.25;4954377;28;45427;-73
2023/07/10 14:34:44;;;;;;;;;1.40;0.20;;;;;37.08;19.28;101624.41;4958952;28;45545;-73
2023/07/10 14:37:21;;;;;;;;;0.50;0.00;;;;;37.08;20.06;101627.16;4953845;28;46876;-72
2023/07/10 14:39:48;;;;;;;;;0.20;0.20;;;;;37.21;20.15;101640.91;4958601;28;45385;-73
2023/07/10 14:42:20;;;;;;;;;0.00;0.00;;;;;36.88;19.22;101625.84;4955032;28;45413;-73
2023/07/10 14:44:46;;;;;;;;;0.00;0.00;;;;;36.95;20.37;101643.72;4959283;28;45466;-73
2023/07/10 14:47:33;;;;;;;;;2.00;0.40;;;;;36.94;20.12;101641.97;4955861;28;45375;-72
2023/07/10 14:49:59;;;;;;;;;1.00;1.00;;;;;37.02;20.44;101635.88;4933392;28;45550;-71
2023/07/10 14:52:28;;;;;;;;;0.00;0.00;;;;;37.22;20.13;101639.03;4951339;28;45425;-71
2023/07/10 14:54:55;;;;;;;;;0.00;0.00;;;;;37.30;20.27;101637.47;4948684;28;45563;-72
2023/07/10 14:57:37;;;;;;;;;0.00;0.00;;;;;37.27;19.84;101642.34;4951511;28;46645;-72
2023/07/10 15:00:24;;;;;;;;;0.00;0.00;;;;;37.19;19.78;101620.84;4956240;28;45275;-72
2023/07/10 15:02:51;;;;;;;;;0.00;0.00;;;;;37.14;20.66;101610.19;4952346;28;45218;-72
2023/07/10 15:05:17;;;;;;;;;1.00;0.00;;;;;37.09;19.86;101619.78;4932397;28;45538;-72
2023/07/10 15:07:43;;;;;;;;;0.00;0.00;;;;;36.94;20.05;101597.84;4960698;28;45935;-72
2023/07/10 15:10:25;;;;;;;;;5.00;3.60;;;;;37.10;20.14;101616.91;4956135;28;45408;-72
2023/07/10 15:12:51;;;;;;;;;3.20;0.00;;;;;37.03;19.22;101611.94;4958302;28;45571;-71
2023/07/10 15:15:18;;;;;;;;;0.25;0.25;;;;;36.88;19.22;101579.00;4957339;28;45894;-71
2023/07/10 15:17:45;;;;;;;;;0.00;0.00;;;;;36.95;19.17;101595.97;4958599;28;46239;-72
2023/07/10 15:20:17;;;;;;;;;0.00;0.00;;;;;36.91;19.33;101592.53;4943624;28;46308;-71
2023/07/10 15:22:43;;;;;;;;;0.00;0.00;;;;;36.82;19.86;101579.47;4960041;28;45466;-72
2023/07/10 15:25:18;;;;;;;;;0.00;0.00;;;;;36.78;19.91;101596.34;4958321;28;45355;-72
2023/07/10 15:27:44;;;;;;;;;0.40;0.00;;;;;36.55;19.49;101557.56;4941715;28;48188;-71
2023/07/10 15:30:11;;;;;;;;;1.00;0.00;;;;;36.58;20.59;101575.75;4958157;28;45322;-71
2023/07/10 15:32:39;;;;;;;;;14.00;11.20;;;;;36.65;20.68;101568.81;4937540;28;45384;-71
2023/07/10 15:35:17;;;;;;;;;0.80;0.80;;;;;36.68;20.04;101586.00;4958721;28;45274;-72
2023/07/10 15:37:44;;;;;;;;;0.20;0.20;;;;;36.50;18.88;101568.03;4960170;28;46709;-72
2023/07/10 15:40:22;;;;;;;;;1.80;0.00;;;;;36.52;19.53;101577.97;4960705;28;45385;-73
2023/07/10 15:42:52;;;;;;;;;0.00;0.00;;;;;36.52;20.00;101552.25;4953893;28;45324;-73
2023/07/10 15:45:19;;;;;;;;;1.00;0.00;;;;;36.67;19.72;101561.31;4946161;28;45349;-72
2023/07/10 15:47:49;;;;;;;;;2.40;0.00;;;;;36.72;18.39;101553.59;4953447;28;45580;-71
2023/07/10 15:50:16;;;;;;;;;0.00;0.00;;;;;36.82;19.74;101565.69;4949467;28;45267;-71
2023/07/10 15:52:45;;;;;;;;;0.20;0.20;;;;;36.72;19.51;101557.22;4954140;28;45463;-72
2023/07/10 15:55:39;;;;;;;;;0.00;0.00;;;;;36.62;19.27;101561.66;4949039;28;45447;-73
2023/07/10 15:58:11;;;;;;;;;0.00;0.00;;;;;36.56;20.04;101547.47;4951191;28;45907;-72
2023/07/10 16:00:38;;;;;;;;;0.00;0.00;;;;;36.42;19.35;101538.28;4949660;28;45371;-73
2023/07/10 16:03:30;;;;;;;;;0.80;0.80;;;;;36.41;19.63;101541.16;4941776;28;45490;-72
2023/07/10 16:06:01;;;;;;;;;0.40;0.00;;;;;36.36;20.27;101522.22;4946447;28;45289;-72
2023/07/10 16:08:30;;;;;;;;;0.00;0.00;;;;;36.33;19.49;101525.22;4956284;28;46412;-72
2023/07/10 16:11:01;;;;;;;;;2.60;0.40;;;;;36.23;19.15;101535.13;4948534;28;45433;-72
2023/07/10 16:13:30;;;;;;;;;0.00;0.00;;;;;36.21;19.31;101532.47;4952306;28;45422;-72
2023/07/10 16:15:56;;;;;;;;;0.00;0.00;;;;;36.10;20.01;101523.22;4950044;28;45433;-72
2023/07/10 16:18:33;;;;;;;;;9.75;4.00;;;;;36.10;20.25;101534.22;4932609;28;48211;-73
2023/07/10 16:21:11;;;;;;;;;0.60;0.00;;;;;35.94;19.24;101520.69;4937568;28;46017;-73
2023/07/10 16:23:37;;;;;;;;;0.20;0.00;;;;;35.75;19.82;101510.97;4959847;28;45303;-73
2023/07/10 16:26:02;;;;;;;;;0.00;0.00;;;;;35.67;19.30;101504.25;4958034;28;45243;-73
2023/07/10 16:28:28;;;;;;;;;0.00;0.00;;;;;35.63;20.30;101509.09;4934710;28;46955;-73
2023/07/10 16:30:55;;;;;;;;;0.80;0.80;;;;;35.49;19.99;101507.25;4957110;28;45786;-72
2023/07/10 16:33:23;;;;;;;;;1.00;0.00;;;;;35.41;20.56;101502.28;4943111;28;45386;-72
2023/07/10 16:35:49;;;;;;;;;0.00;0.00;;;;;35.24;19.71;101510.81;4950775;28;45627;-73
2023/07/10 16:38:18;;;;;;;;;3.00;0.20;;;;;34.90;20.57;101502.09;4958513;28;48635;-72
2023/07/10 16:40:46;;;;;;;;;0.00;0.00;;;;;34.59;20.17;101524.31;4958576;28;45320;-72
2023/07/10 16:43:21;;;;;;;;;0.20;0.20;;;;;34.46;20.98;101503.13;4955284;28;45450;-73
2023/07/10 16:45:49;;;;;;;;;0.20;0.00;;;;;34.36;19.55;101517.53;4948243;28;45425;-73
2023/07/10 16:48:16;;;;;;;;;0.00;0.00;;;;;34.11;18.77;101510.00;4952428;28;45433;-73
2023/07/10 16:50:43;;;;;;;;;0.20;0.20;;;;;34.01;19.28;101518.78;4955212;28;45615;-72
2023/07/10 16:53:24;;;;;;;;;1.00;0.00;;;;;33.85;20.58;101515.22;4939490;28;45309;-73
2023/07/10 16:55:51;;;;;;;;;1.40;0.40;;;;;33.80;20.19;101520.13;4947155;28;45286;-71
2023/07/10 16:58:18;;;;;;;;;0.00;0.00;;;;;33.53;20.23;101500.78;4952691;28;46588;-71
2023/07/10 17:00:44;;;;;;;;;0.00;0.00;;;;;33.42;20.25;101520.56;4955284;28;45414;-72